Time;durP1;ratioP1;P1;durP2;ratioP2;P2;SDS_P1;SDS_P2;PMS_P1;PMS_P2;Temp;Humidity;BMP_temperature;BMP_pressure;BME280_temperature;BME280_humidity;BME280_pressure;Samples;Min_cycle;Max_cycle;Signal;HPM_P1;HPM_P2
2023/10/10 00:02:18;;;;;;;0.70;0.50;;;2.30;99.90;;;;;;5071159;28;20618;-89
2023/10/10 00:04:48;;;;;;;2.05;0.50;;;2.30;99.90;;;;;;5071082;28;20223;-90
2023/10/10 00:07:17;;;;;;;0.88;0.57;;;2.10;99.90;;;;;;5071103;28;20256;-90
2023/10/10 00:09:45;;;;;;;2.20;0.70;;;2.00;99.90;;;;;;5070036;28;20220;-90
2023/10/10 00:12:20;;;;;;;1.05;0.60;;;2.10;99.90;;;;;;5065406;28;20202;-89
2023/10/10 00:14:50;;;;;;;1.38;0.73;;;2.20;99.90;;;;;;5051472;28;20192;-91
2023/10/10 00:17:20;;;;;;;2.80;0.65;;;2.20;99.90;;;;;;5053168;28;20212;-89
2023/10/10 00:20:15;;;;;;;1.38;0.90;;;1.90;99.90;;;;;;5051008;28;20223;-89
2023/10/10 00:22:46;;;;;;;1.20;0.80;;;1.90;99.90;;;;;;5056952;28;20192;-90
2023/10/10 00:25:23;;;;;;;4.57;0.98;;;2.10;99.90;;;;;;5070850;28;20212;-90
2023/10/10 00:28:27;;;;;;;1.85;0.80;;;2.10;99.90;;;;;;5070811;28;20184;-91
2023/10/10 00:30:49;;;;;;;1.10;0.80;;;2.00;99.90;;;;;;5070547;28;20198;-91
2023/10/10 00:33:17;;;;;;;1.75;0.98;;;2.10;99.90;;;;;;5066091;28;20220;-91
2023/10/10 00:35:47;;;;;;;1.48;0.90;;;1.90;99.90;;;;;;5069461;28;20192;-90
2023/10/10 00:38:24;;;;;;;3.33;1.00;;;2.00;99.90;;;;;;5070538;28;20215;-90
2023/10/10 00:40:54;;;;;;;2.92;1.05;;;2.20;99.90;;;;;;5070648;28;20220;-90
2023/10/10 00:43:22;;;;;;;3.17;1.05;;;2.20;99.90;;;;;;5054035;28;20584;-89
2023/10/10 00:45:57;;;;;;;1.25;0.85;;;2.10;99.90;;;;;;5070569;28;20247;-89
2023/10/10 00:48:29;;;;;;;2.92;1.20;;;2.10;99.90;;;;;;5070401;28;20219;-89
2023/10/10 00:51:10;;;;;;;1.63;1.00;;;2.00;99.90;;;;;;5068501;28;20275;-89
2023/10/10 00:53:41;;;;;;;1.42;0.80;;;2.10;99.90;;;;;;5070459;28;20181;-89
2023/10/10 00:56:09;;;;;;;1.73;0.93;;;2.20;99.90;;;;;;5071470;28;20192;-91
2023/10/10 00:58:37;;;;;;;1.58;1.02;;;2.20;99.90;;;;;;5070510;28;20189;-89
2023/10/10 01:01:09;;;;;;;2.28;1.15;;;2.20;99.90;;;;;;5050417;28;20193;-89
2023/10/10 01:03:41;;;;;;;3.30;1.20;;;2.20;99.90;;;;;;5051636;28;20256;-89
2023/10/10 01:06:32;;;;;;;1.13;0.60;;;2.20;99.90;;;;;;5052983;28;20209;-89
2023/10/10 01:09:03;;;;;;;1.10;0.70;;;2.10;99.90;;;;;;5071646;28;20181;-89
2023/10/10 01:11:31;;;;;;;1.13;0.50;;;2.10;99.90;;;;;;5053354;28;20910;-89
2023/10/10 01:14:00;;;;;;;1.50;0.90;;;1.90;99.90;;;;;;5066577;28;20232;-89
2023/10/10 01:16:27;;;;;;;1.70;0.77;;;1.90;99.90;;;;;;5064848;28;20213;-89
2023/10/10 01:18:59;;;;;;;1.13;0.80;;;2.00;99.90;;;;;;5069993;28;20199;-89
2023/10/10 01:21:31;;;;;;;1.67;0.85;;;2.00;99.90;;;;;;5071019;28;20172;-89
2023/10/10 01:24:11;;;;;;;1.40;0.70;;;1.90;99.90;;;;;;5071122;28;20165;-89
2023/10/10 01:26:44;;;;;;;2.65;1.10;;;1.90;99.90;;;;;;5053358;28;20200;-90
2023/10/10 01:29:25;;;;;;;3.33;0.82;;;2.00;99.90;;;;;;5069517;28;20185;-90
2023/10/10 01:31:54;;;;;;;2.88;0.90;;;1.90;99.90;;;;;;5069830;28;20231;-88
2023/10/10 01:37:29;;;;;;;1.55;1.00;;;1.90;99.90;;;;;;5066326;28;20295;-89
2023/10/10 01:42:45;;;;;;;1.10;0.60;;;1.70;99.90;;;;;;5066012;28;20298;-90
2023/10/10 01:45:18;;;;;;;0.98;0.70;;;1.60;99.90;;;;;;5049758;28;20192;-88
2023/10/10 01:48:08;;;;;;;2.22;0.90;;;1.40;99.90;;;;;;5066005;28;20591;-88
2023/10/10 01:50:36;;;;;;;1.75;0.80;;;1.40;99.90;;;;;;5068391;28;20208;-89
2023/10/10 01:53:06;;;;;;;2.00;1.00;;;1.50;99.90;;;;;;5069455;28;20199;-89
2023/10/10 01:55:33;;;;;;;2.70;1.08;;;1.40;99.90;;;;;;5070501;28;20184;-88
2023/10/10 01:58:02;;;;;;;1.98;1.20;;;1.10;99.90;;;;;;5033054;28;20212;-89
2023/10/10 02:00:34;;;;;;;2.47;1.05;;;1.00;99.90;;;;;;5049054;28;20193;-88
2023/10/10 02:03:03;;;;;;;3.22;1.00;;;0.90;99.90;;;;;;5036070;28;20181;-90
2023/10/10 02:08:27;;;;;;;1.38;0.80;;;0.80;99.90;;;;;;5072015;28;20177;-89
2023/10/10 02:10:55;;;;;;;1.52;0.70;;;0.70;99.90;;;;;;5074380;28;20177;-90
2023/10/10 02:13:25;;;;;;;0.93;0.52;;;0.80;99.90;;;;;;5074430;28;20180;-88
2023/10/10 02:15:53;;;;;;;2.05;0.65;;;0.80;99.90;;;;;;5036807;28;20215;-88
2023/10/10 02:18:37;;;;;;;1.77;0.90;;;0.80;99.90;;;;;;5063218;28;20232;-89
2023/10/10 02:21:15;;;;;;;1.80;0.85;;;0.80;99.90;;;;;;5072339;28;20188;-90
2023/10/10 02:23:46;;;;;;;1.23;0.85;;;1.10;99.90;;;;;;5067214;28;20185;-89
2023/10/10 02:26:23;;;;;;;1.98;0.82;;;1.30;99.90;;;;;;5073165;28;20196;-88
2023/10/10 02:29:18;;;;;;;1.95;0.80;;;1.30;99.90;;;;;;5056417;28;20208;-88
2023/10/10 02:31:41;;;;;;;2.17;0.98;;;1.10;99.90;;;;;;5061013;28;20737;-88
2023/10/10 02:34:10;;;;;;;2.30;1.02;;;1.10;99.90;;;;;;5054626;28;20210;-87
2023/10/10 02:36:41;;;;;;;2.10;0.80;;;0.90;99.90;;;;;;5053405;28;20267;-88
2023/10/10 02:39:56;;;;;;;2.92;0.73;;;0.80;99.90;;;;;;5061342;28;20648;-89
2023/10/10 02:42:01;;;;;;;4.53;0.90;;;0.90;99.90;;;;;;5065433;28;20609;-89
2023/10/10 02:47:02;;;;;;;1.48;0.60;;;1.10;99.90;;;;;;5062306;28;20609;-88
2023/10/10 02:49:30;;;;;;;0.75;0.43;;;1.20;99.90;;;;;;5055996;28;20852;-88
2023/10/10 02:52:05;;;;;;;0.98;0.45;;;1.20;99.90;;;;;;5069994;28;20188;-90
2023/10/10 02:59:52;;;;;;;1.48;0.60;;;1.00;99.90;;;;;;5063428;28;20184;-89
2023/10/10 03:02:28;;;;;;;0.47;0.40;;;1.10;99.90;;;;;;5072212;28;20195;-88
2023/10/10 03:07:29;;;;;;;0.77;0.50;;;1.00;99.90;;;;;;5073712;28;20188;-89
2023/10/10 03:10:21;;;;;;;0.77;0.30;;;0.70;99.90;;;;;;5072001;28;20192;-89
2023/10/10 03:12:50;;;;;;;0.60;0.30;;;0.60;99.90;;;;;;5071337;28;20200;-88
2023/10/10 03:18:18;;;;;;;0.70;0.40;;;0.50;99.90;;;;;;5072409;28;20740;-90
2023/10/10 03:21:12;;;;;;;1.85;0.32;;;0.60;99.90;;;;;;5073183;28;20244;-88
2023/10/10 03:23:56;;;;;;;0.57;0.22;;;0.80;99.90;;;;;;5068659;28;20216;-91
2023/10/10 03:27:01;;;;;;;0.32;0.30;;;0.90;99.90;;;;;;5052097;28;20197;-89
2023/10/10 03:32:32;;;;;;;4.85;0.45;;;0.80;99.90;;;;;;5050561;28;20211;-88
2023/10/10 03:35:20;;;;;;;0.80;0.50;;;0.70;99.90;;;;;;5034104;28;20196;-89
2023/10/10 03:38:04;;;;;;;1.30;0.43;;;0.40;99.90;;;;;;5041289;28;20244;-88
2023/10/10 05:23:31;;;;;;;16.10;4.53;;;-0.20;99.90;;;;;;5072912;28;20184;-88
2023/10/10 05:25:59;;;;;;;11.00;3.88;;;-0.30;99.90;;;;;;5071410;28;20165;-88
2023/10/10 05:28:32;;;;;;;11.38;4.40;;;-0.20;99.90;;;;;;5055421;28;20242;-87
2023/10/10 05:31:02;;;;;;;11.35;4.22;;;-0.20;99.90;;;;;;5072368;28;20176;-88
2023/10/10 05:33:36;;;;;;;9.38;3.15;;;-0.30;99.90;;;;;;5055838;28;20272;-87
2023/10/10 05:36:06;;;;;;;9.45;3.25;;;-0.30;99.90;;;;;;5068293;28;20183;-89
2023/10/10 05:38:39;;;;;;;10.18;3.38;;;-0.40;99.90;;;;;;5051258;28;20197;-87
2023/10/10 05:41:10;;;;;;;8.13;3.50;;;-0.40;99.90;;;;;;5053295;28;20213;-88
2023/10/10 05:43:39;;;;;;;11.23;4.10;;;-0.40;99.90;;;;;;5055770;28;20208;-87
2023/10/10 05:46:08;;;;;;;6.93;3.55;;;-0.40;99.90;;;;;;5055754;28;20204;-88
2023/10/10 05:48:37;;;;;;;5.68;2.80;;;-0.30;99.90;;;;;;5039643;28;20669;-87
2023/10/10 05:51:04;;;;;;;7.70;2.58;;;-0.30;99.90;;;;;;5056686;28;20639;-87
2023/10/10 05:53:33;;;;;;;4.60;2.40;;;-0.30;99.90;;;;;;5075536;28;20222;-88
2023/10/10 05:56:12;;;;;;;5.18;2.08;;;-0.20;99.90;;;;;;5058468;28;20243;-86
2023/10/10 05:58:46;;;;;;;3.15;1.85;;;-0.10;99.90;;;;;;5076066;28;20205;-88
2023/10/10 06:01:15;;;;;;;5.35;2.50;;;0.00;99.90;;;;;;5077050;28;20180;-87
2023/10/10 06:03:46;;;;;;;4.53;2.20;;;-0.10;99.90;;;;;;5076013;28;20230;-88
2023/10/10 06:06:15;;;;;;;4.32;1.90;;;-0.10;99.90;;;;;;5075844;28;20195;-88
2023/10/10 06:08:44;;;;;;;5.22;2.30;;;-0.10;99.90;;;;;;5067453;28;20189;-89
2023/10/10 06:11:16;;;;;;;4.32;2.22;;;-0.10;99.90;;;;;;5039550;28;20561;-87
2023/10/10 06:13:44;;;;;;;4.38;2.40;;;-0.10;99.90;;;;;;5056051;28;20281;-88
2023/10/10 06:16:14;;;;;;;4.20;2.25;;;0.00;99.90;;;;;;5038969;28;20194;-87
2023/10/10 06:18:45;;;;;;;4.60;2.20;;;0.00;99.90;;;;;;5053638;28;20589;-87
2023/10/10 06:21:14;;;;;;;3.40;2.00;;;0.10;99.90;;;;;;5052215;28;20190;-87
2023/10/10 06:23:44;;;;;;;5.53;2.95;;;0.30;99.90;;;;;;5045538;28;20693;-88
2023/10/10 06:26:12;;;;;;;6.72;3.08;;;0.30;99.90;;;;;;5059756;28;20188;-87
2023/10/10 06:28:47;;;;;;;6.80;2.90;;;0.40;99.90;;;;;;5065963;28;20221;-88
2023/10/10 06:31:19;;;;;;;5.40;2.55;;;0.40;99.90;;;;;;5075468;28;20278;-88
2023/10/10 06:33:56;;;;;;;7.57;3.22;;;0.40;99.90;;;;;;5075151;28;20200;-88
2023/10/10 06:41:42;;;;;;;8.00;3.72;;;0.30;99.90;;;;;;5073445;28;20307;-88
2023/10/10 06:44:13;;;;;;;7.43;3.25;;;0.30;99.90;;;;;;5068522;28;20630;-88
2023/10/10 06:46:47;;;;;;;7.13;3.90;;;0.30;99.90;;;;;;5049145;28;20200;-87
2023/10/10 06:49:15;;;;;;;6.15;3.58;;;0.30;99.90;;;;;;5074418;28;20196;-88
2023/10/10 06:51:43;;;;;;;6.57;4.10;;;0.40;99.90;;;;;;5069184;28;20284;-88
2023/10/10 06:54:27;;;;;;;4.82;3.30;;;0.50;99.90;;;;;;5071933;28;20200;-88
2023/10/10 06:59:27;;;;;;;9.45;2.40;;;0.50;99.90;;;;;;5061722;28;20197;-88
2023/10/10 07:02:13;;;;;;;4.70;2.60;;;0.50;99.90;;;;;;5045801;28;20185;-89
2023/10/10 07:04:41;;;;;;;9.52;2.90;;;0.40;99.90;;;;;;5038012;28;20643;-89
2023/10/10 07:07:11;;;;;;;3.70;2.22;;;0.40;99.90;;;;;;5037001;28;20204;-90
2023/10/10 07:09:42;;;;;;;3.78;2.08;;;0.40;99.90;;;;;;5058217;28;20216;-88
2023/10/10 07:12:10;;;;;;;15.60;3.08;;;0.50;99.90;;;;;;5066232;28;20193;-88
2023/10/10 07:14:46;;;;;;;4.70;1.90;;;0.50;99.90;;;;;;5074282;28;20185;-88
2023/10/10 07:17:15;;;;;;;33.88;3.30;;;0.50;99.90;;;;;;5058029;28;20192;-89
2023/10/10 07:22:34;;;;;;;6.72;1.55;;;0.30;99.90;;;;;;5074475;28;20272;-88
2023/10/10 07:25:07;;;;;;;13.70;2.47;;;0.50;99.90;;;;;;5074377;28;21107;-89
2023/10/10 07:27:39;;;;;;;3.97;2.05;;;0.50;99.90;;;;;;5057355;28;20272;-90
2023/10/10 07:30:18;;;;;;;12.88;2.40;;;0.60;99.90;;;;;;5057841;28;20348;-90
2023/10/10 07:32:50;;;;;;;3.30;1.63;;;0.70;99.90;;;;;;5074412;28;20184;-89
2023/10/10 07:35:25;;;;;;;4.32;1.73;;;0.70;99.90;;;;;;5068077;28;20538;-86
2023/10/10 07:37:58;;;;;;;7.95;1.80;;;0.80;99.90;;;;;;5064905;28;20222;-86
2023/10/10 07:40:30;;;;;;;58.80;4.22;;;0.80;99.90;;;;;;5057798;28;20197;-84
2023/10/10 07:42:59;;;;;;;32.05;3.22;;;0.80;99.90;;;;;;5063531;28;20189;-86
2023/10/10 07:45:52;;;;;;;4.63;1.73;;;0.70;99.90;;;;;;5067541;28;20305;-86
2023/10/10 07:50:48;;;;;;;12.45;2.42;;;0.80;99.90;;;;;;5069104;28;20299;-86
2023/10/10 07:53:17;;;;;;;4.90;2.13;;;0.70;99.90;;;;;;5065246;28;20207;-85
2023/10/10 07:58:29;;;;;;;2.97;2.00;;;0.80;99.90;;;;;;5055196;28;20209;-86
2023/10/10 08:01:17;;;;;;;28.80;2.88;;;0.90;99.90;;;;;;5066665;28;20206;-86
2023/10/10 08:03:46;;;;;;;5.43;1.35;;;1.00;99.90;;;;;;5069079;28;20548;-87
2023/10/10 08:06:21;;;;;;;8.88;1.60;;;1.00;99.90;;;;;;5069534;28;20195;-85
2023/10/10 08:09:18;;;;;;;3.75;1.25;;;1.10;99.90;;;;;;5051248;28;20193;-87
2023/10/10 08:11:39;;;;;;;12.40;2.28;;;1.30;99.90;;;;;;5057614;28;20189;-86
2023/10/10 08:14:08;;;;;;;2.55;1.50;;;1.30;99.90;;;;;;5068839;28;20185;-85
2023/10/10 08:16:39;;;;;;;1.90;0.95;;;1.40;99.90;;;;;;5061431;28;20192;-86
2023/10/10 08:19:08;;;;;;;4.85;1.40;;;1.40;99.90;;;;;;5066537;28;20927;-86
2023/10/10 08:21:38;;;;;;;2.83;1.10;;;1.30;99.90;;;;;;5057247;28;20182;-88
2023/10/10 08:24:08;;;;;;;2.97;1.30;;;1.40;99.90;;;;;;5063568;28;20207;-86
2023/10/10 08:26:39;;;;;;;13.10;2.05;;;1.50;99.90;;;;;;5047753;28;20199;-86
2023/10/10 08:29:12;;;;;;;10.05;2.17;;;1.50;99.90;;;;;;5068592;28;20672;-86
2023/10/10 08:31:44;;;;;;;8.13;2.00;;;1.60;99.90;;;;;;5063692;28;20193;-85
2023/10/10 08:34:13;;;;;;;4.40;1.92;;;1.60;99.90;;;;;;5061409;28;20261;-86
2023/10/10 08:36:43;;;;;;;4.03;1.90;;;1.60;99.90;;;;;;5054755;28;20185;-85
2023/10/10 08:39:17;;;;;;;4.95;2.22;;;1.70;99.90;;;;;;5060696;28;20196;-86
2023/10/10 08:41:45;;;;;;;3.50;1.85;;;1.90;99.90;;;;;;5070578;28;20644;-86
2023/10/10 08:44:14;;;;;;;3.97;2.03;;;1.90;99.90;;;;;;5067139;28;20182;-85
2023/10/10 08:46:48;;;;;;;4.18;2.38;;;2.10;99.90;;;;;;5064304;28;20217;-87
2023/10/10 08:49:16;;;;;;;3.15;1.92;;;2.00;99.90;;;;;;5060513;28;20193;-85
2023/10/10 08:51:45;;;;;;;3.67;1.85;;;2.20;99.90;;;;;;5056511;28;20582;-85
2023/10/10 08:54:15;;;;;;;2.72;1.50;;;2.30;99.90;;;;;;5050144;28;20216;-86
2023/10/10 08:57:10;;;;;;;2.50;1.77;;;2.50;99.90;;;;;;5061026;28;20312;-86
2023/10/10 08:59:42;;;;;;;1.70;1.17;;;2.60;99.90;;;;;;5052148;28;20209;-86
2023/10/10 09:02:16;;;;;;;2.50;1.70;;;2.70;99.90;;;;;;5065574;28;20192;-85
2023/10/10 09:04:44;;;;;;;3.15;2.38;;;2.80;99.90;;;;;;5055904;28;20193;-87
2023/10/10 09:07:20;;;;;;;3.55;1.80;;;2.90;99.90;;;;;;5067629;28;20651;-86
2023/10/10 09:10:04;;;;;;;2.30;1.30;;;3.00;99.90;;;;;;5064917;28;20189;-86
2023/10/10 09:12:52;;;;;;;2.50;1.52;;;3.10;99.90;;;;;;5070553;28;20194;-86
2023/10/10 09:15:21;;;;;;;2.72;1.27;;;3.10;99.90;;;;;;5070705;28;20187;-86
2023/10/10 09:17:49;;;;;;;3.85;1.33;;;3.10;99.90;;;;;;5048279;28;20208;-87
2023/10/10 09:20:28;;;;;;;8.27;1.50;;;3.20;99.90;;;;;;5066256;28;20196;-87
2023/10/10 09:23:35;;;;;;;1.80;1.02;;;3.30;99.90;;;;;;5070735;28;20289;-87
2023/10/10 09:26:09;;;;;;;1.88;1.10;;;3.20;99.90;;;;;;5061208;28;20211;-82
2023/10/10 09:28:45;;;;;;;3.63;1.30;;;3.20;99.90;;;;;;5058672;28;20271;-82
2023/10/10 09:31:20;;;;;;;1.77;1.10;;;3.40;99.90;;;;;;5058154;28;20184;-83
2023/10/10 09:33:50;;;;;;;1.52;1.10;;;3.40;99.90;;;;;;5060706;28;20245;-83
2023/10/10 09:36:26;;;;;;;3.53;1.25;;;3.40;99.90;;;;;;5063786;28;20193;-82
2023/10/10 09:39:08;;;;;;;1.65;1.38;;;3.40;99.90;;;;;;5058670;28;20282;-82
2023/10/10 09:41:47;;;;;;;1.80;1.15;;;3.40;99.90;;;;;;5060299;28;20220;-82
2023/10/10 10:09:17;;;;;;;2.25;1.10;;;3.80;99.90;;;;;;5063383;28;20666;-81
2023/10/10 10:12:19;;;;;;;1.35;1.10;;;4.00;99.90;;;;;;5061666;28;20188;-82
2023/10/10 10:15:18;;;;;;;2.05;1.02;;;4.20;99.90;;;;;;5059838;28;20192;-82
2023/10/10 10:17:49;;;;;;;1.13;0.90;;;4.20;99.90;;;;;;5065955;28;20200;-83
2023/10/10 10:20:25;;;;;;;2.22;1.10;;;4.20;99.90;;;;;;5057178;28;20291;-82
2023/10/10 10:22:59;;;;;;;1.50;0.90;;;4.40;99.90;;;;;;5058436;28;20181;-83
2023/10/10 10:25:32;;;;;;;1.73;0.80;;;4.60;99.90;;;;;;5051215;28;20184;-82
2023/10/10 10:28:11;;;;;;;6.10;1.05;;;4.80;99.90;;;;;;5059442;28;20181;-83
2023/10/10 10:30:50;;;;;;;1.92;0.70;;;4.90;99.90;;;;;;5062239;28;20189;-83
2023/10/10 10:33:22;;;;;;;0.88;0.73;;;5.10;99.90;;;;;;5056560;28;20185;-82
2023/10/10 10:36:06;;;;;;;1.45;0.85;;;5.30;99.90;;;;;;5069031;28;20667;-83
2023/10/10 10:38:34;;;;;;;2.53;0.85;;;5.40;99.90;;;;;;5064105;28;20942;-82
2023/10/10 10:41:16;;;;;;;0.95;0.77;;;5.40;99.90;;;;;;5067754;28;20233;-82
2023/10/10 10:43:50;;;;;;;1.95;0.90;;;5.50;99.90;;;;;;5059644;28;20189;-82
2023/10/10 10:46:27;;;;;;;1.40;0.82;;;5.60;99.90;;;;;;5056836;28;20195;-82
2023/10/10 10:49:05;;;;;;;1.10;0.80;;;5.30;99.90;;;;;;5063721;28;20279;-83
2023/10/10 10:51:42;;;;;;;3.72;0.88;;;5.10;99.90;;;;;;5055727;28;20707;-83
2023/10/10 10:54:35;;;;;;;1.20;0.80;;;5.10;99.90;;;;;;5062435;28;20544;-81
2023/10/10 10:57:03;;;;;;;1.50;1.00;;;5.40;99.90;;;;;;5057542;28;20185;-82
2023/10/10 10:59:38;;;;;;;5.35;1.30;;;5.50;99.90;;;;;;5067015;28;20199;-82
2023/10/10 11:02:16;;;;;;;1.23;0.80;;;5.40;99.90;;;;;;5051689;28;20185;-83
2023/10/10 11:04:52;;;;;;;1.38;0.82;;;5.60;99.90;;;;;;5063051;28;20287;-82
2023/10/10 11:07:30;;;;;;;1.40;0.75;;;5.80;99.90;;;;;;5061950;28;20185;-82
2023/10/10 11:10:06;;;;;;;1.25;1.00;;;5.90;99.90;;;;;;5066118;28;20300;-81
2023/10/10 11:12:36;;;;;;;1.92;1.10;;;5.80;99.90;;;;;;5062685;28;20183;-83
2023/10/10 11:15:10;;;;;;;3.40;1.33;;;5.80;99.90;;;;;;5062146;28;20192;-82
2023/10/10 11:17:39;;;;;;;4.15;1.52;;;6.00;99.90;;;;;;5063733;28;20188;-81
2023/10/10 11:23:07;;;;;;;2.00;1.23;;;5.70;99.90;;;;;;5064177;28;20525;-83
2023/10/10 11:25:58;;;;;;;1.98;0.90;;;5.80;99.90;;;;;;5058860;28;20184;-81
2023/10/10 11:28:47;;;;;;;2.75;1.00;;;6.00;99.90;;;;;;5059229;28;20189;-83
2023/10/10 11:31:29;;;;;;;1.60;1.02;;;5.80;99.90;;;;;;5059149;28;20185;-81
2023/10/10 11:34:10;;;;;;;1.38;1.00;;;5.60;99.90;;;;;;5063491;28;20192;-81
2023/10/10 11:36:39;;;;;;;2.47;1.42;;;5.60;99.90;;;;;;5061484;28;20905;-81
2023/10/10 11:39:31;;;;;;;2.40;1.30;;;5.80;99.90;;;;;;5056111;28;20209;-82
2023/10/10 11:42:04;;;;;;;1.48;0.93;;;5.70;99.90;;;;;;5059185;28;20320;-82
2023/10/10 11:44:33;;;;;;;3.35;1.13;;;5.70;99.90;;;;;;5066117;28;20521;-83
2023/10/10 11:47:07;;;;;;;3.45;1.10;;;5.70;99.90;;;;;;5066792;28;20182;-83
2023/10/10 11:49:37;;;;;;;1.80;1.00;;;5.70;99.90;;;;;;5057448;28;20211;-83
2023/10/10 11:52:19;;;;;;;2.22;1.10;;;6.00;99.90;;;;;;5060330;28;20193;-82
2023/10/10 11:54:46;;;;;;;3.90;1.40;;;5.60;99.90;;;;;;5051288;28;20199;-81
2023/10/10 11:57:15;;;;;;;2.85;1.33;;;5.70;99.90;;;;;;5057079;28;20187;-82
2023/10/10 11:59:44;;;;;;;3.22;1.30;;;6.00;99.90;;;;;;5040713;28;20295;-83
2023/10/10 12:02:16;;;;;;;3.17;1.30;;;6.00;99.90;;;;;;5044475;28;20181;-81
2023/10/10 12:04:44;;;;;;;2.72;1.40;;;5.70;99.90;;;;;;5050162;28;20189;-83
2023/10/10 12:07:14;;;;;;;2.67;1.48;;;5.70;99.90;;;;;;5066696;28;20792;-82
2023/10/10 12:09:45;;;;;;;2.97;1.65;;;5.50;99.90;;;;;;5067461;28;20631;-82
2023/10/10 12:12:13;;;;;;;5.10;2.03;;;5.50;99.90;;;;;;5050670;28;20193;-81
2023/10/10 12:14:42;;;;;;;2.67;1.20;;;5.70;99.90;;;;;;5058558;28;20247;-82
2023/10/10 12:17:14;;;;;;;2.65;1.10;;;5.60;99.90;;;;;;5066945;28;20700;-82
2023/10/10 12:19:43;;;;;;;1.75;1.10;;;5.50;99.90;;;;;;5055968;28;20205;-83
2023/10/10 12:22:11;;;;;;;2.45;1.13;;;5.50;99.90;;;;;;5061545;28;20230;-81
2023/10/10 12:24:39;;;;;;;2.15;1.40;;;5.50;99.90;;;;;;5059168;28;20312;-82
2023/10/10 12:27:08;;;;;;;3.05;1.70;;;5.60;99.90;;;;;;5056543;28;20196;-82
2023/10/10 12:29:39;;;;;;;2.40;1.30;;;5.70;99.90;;;;;;5059938;28;20189;-82
2023/10/10 12:32:15;;;;;;;2.30;1.15;;;5.70;99.90;;;;;;5058119;28;20730;-82
2023/10/10 12:34:45;;;;;;;3.67;1.20;;;5.60;99.90;;;;;;5058009;28;20686;-81
2023/10/10 12:37:15;;;;;;;2.13;1.08;;;5.70;99.90;;;;;;5058823;28;20185;-81
2023/10/10 12:39:44;;;;;;;3.95;1.30;;;5.70;99.90;;;;;;5059883;28;20596;-81
2023/10/10 12:42:11;;;;;;;2.25;1.23;;;5.70;99.90;;;;;;5063014;28;20754;-82
2023/10/10 12:44:39;;;;;;;1.85;1.10;;;5.90;99.90;;;;;;5064977;28;20258;-81
2023/10/10 12:47:07;;;;;;;2.83;1.08;;;6.10;99.90;;;;;;5065022;28;20185;-82
2023/10/10 12:49:44;;;;;;;1.80;0.85;;;6.20;99.90;;;;;;5061310;28;20267;-82
2023/10/10 12:52:12;;;;;;;4.30;1.20;;;6.00;99.90;;;;;;5065582;28;20604;-83
2023/10/10 12:54:41;;;;;;;1.13;0.77;;;6.10;99.90;;;;;;5057117;28;20690;-81
2023/10/10 12:57:14;;;;;;;2.58;0.90;;;6.20;99.90;;;;;;5057504;28;20544;-81
2023/10/10 12:59:48;;;;;;;2.22;0.75;;;6.10;99.90;;;;;;5049431;28;20207;-82
2023/10/10 13:02:17;;;;;;;1.35;1.13;;;6.20;99.90;;;;;;5061300;28;20184;-83
2023/10/10 13:04:46;;;;;;;2.47;0.93;;;6.50;99.90;;;;;;5060469;28;20238;-83
2023/10/10 13:07:16;;;;;;;2.35;1.00;;;6.50;99.90;;;;;;5050191;28;20263;-81
2023/10/10 13:09:46;;;;;;;2.83;0.90;;;6.40;99.90;;;;;;5058391;28;20268;-82
2023/10/10 13:12:27;;;;;;;1.30;0.68;;;6.40;99.90;;;;;;5060382;28;20208;-81
2023/10/10 13:15:16;;;;;;;2.67;0.95;;;6.50;99.90;;;;;;5060642;28;20196;-81
2023/10/10 13:18:11;;;;;;;2.65;0.77;;;6.60;99.90;;;;;;5067723;28;20273;-82
2023/10/10 13:20:39;;;;;;;1.48;0.60;;;6.70;99.90;;;;;;5061081;28;20216;-83
2023/10/10 13:23:07;;;;;;;3.25;0.88;;;6.60;99.90;;;;;;5063478;28;20176;-83
2023/10/10 13:25:37;;;;;;;2.35;0.95;;;6.50;99.90;;;;;;5051976;28;20265;-83
2023/10/10 13:28:17;;;;;;;2.03;1.02;;;6.40;99.90;;;;;;5063806;28;20190;-80
2023/10/10 13:30:47;;;;;;;3.30;1.75;;;6.40;99.90;;;;;;5059866;28;20200;-83
2023/10/10 13:33:16;;;;;;;2.97;0.77;;;6.40;99.90;;;;;;5065147;28;20648;-82
2023/10/10 13:35:44;;;;;;;1.65;0.90;;;6.30;99.90;;;;;;5059226;28;20223;-82
2023/10/10 13:38:12;;;;;;;1.20;0.70;;;6.30;99.90;;;;;;5050011;28;20228;-83
2023/10/10 13:40:46;;;;;;;2.67;0.98;;;6.40;99.90;;;;;;5056194;28;20220;-82
2023/10/10 13:43:19;;;;;;;2.30;0.70;;;6.40;99.90;;;;;;5054072;28;20204;-83
2023/10/10 13:45:48;;;;;;;1.58;1.13;;;6.30;99.90;;;;;;5055896;28;20193;-82
2023/10/10 13:48:18;;;;;;;1.27;1.15;;;6.40;99.90;;;;;;5060480;28;20611;-82
2023/10/10 13:50:46;;;;;;;1.27;0.73;;;6.40;99.90;;;;;;5057823;28;20835;-81
2023/10/10 13:53:15;;;;;;;2.03;0.80;;;6.30;99.90;;;;;;5058749;28;20212;-82
2023/10/10 13:55:46;;;;;;;1.08;0.63;;;6.40;99.90;;;;;;5053715;28;20193;-82
2023/10/10 13:58:16;;;;;;;1.52;0.52;;;6.40;99.90;;;;;;5056197;28;20212;-82
2023/10/10 14:00:52;;;;;;;0.90;0.60;;;6.60;99.90;;;;;;5057517;28;20201;-81
2023/10/10 14:03:28;;;;;;;0.93;0.70;;;6.60;99.90;;;;;;5052214;28;20276;-81
2023/10/10 14:06:12;;;;;;;2.13;0.60;;;6.60;99.90;;;;;;5063775;28;20184;-82
2023/10/10 14:08:44;;;;;;;1.38;0.70;;;6.60;99.90;;;;;;5059888;28;20192;-82
2023/10/10 14:11:13;;;;;;;2.63;0.60;;;6.50;99.90;;;;;;5063625;28;20184;-82
2023/10/10 14:13:40;;;;;;;1.13;0.55;;;6.40;99.90;;;;;;5062096;28;20193;-82
2023/10/10 14:16:08;;;;;;;2.30;0.68;;;6.30;99.90;;;;;;5063842;28;20219;-82
2023/10/10 14:18:51;;;;;;;1.42;0.43;;;6.10;99.90;;;;;;5060707;28;20185;-85
2023/10/10 14:21:27;;;;;;;1.05;0.50;;;6.10;99.90;;;;;;5059987;28;20867;-86
2023/10/10 14:24:04;;;;;;;0.95;0.45;;;6.10;99.90;;;;;;5062648;28;20275;-86
2023/10/10 14:26:35;;;;;;;2.13;0.68;;;6.00;99.90;;;;;;5064225;28;20181;-85
2023/10/10 14:29:07;;;;;;;1.20;0.60;;;6.00;99.90;;;;;;5067417;28;20188;-85
2023/10/10 14:31:42;;;;;;;2.60;0.63;;;5.90;99.90;;;;;;5043847;28;20247;-86
2023/10/10 14:34:26;;;;;;;1.92;0.70;;;5.90;99.90;;;;;;5064443;28;20193;-87
2023/10/10 14:36:54;;;;;;;4.55;1.35;;;5.90;99.90;;;;;;5051723;28;20465;-87
2023/10/10 14:39:28;;;;;;;12.57;1.10;;;5.90;99.90;;;;;;5058528;28;20204;-88
2023/10/10 14:41:57;;;;;;;1.20;0.65;;;5.80;99.90;;;;;;5044399;28;20229;-86
2023/10/10 14:44:28;;;;;;;1.20;0.70;;;5.80;99.90;;;;;;5058057;28;20192;-86
2023/10/10 14:46:57;;;;;;;1.20;0.65;;;5.80;99.90;;;;;;5061119;28;20276;-87
2023/10/10 14:49:31;;;;;;;1.63;0.65;;;5.80;99.90;;;;;;5061284;28;20235;-86
2023/10/10 14:52:03;;;;;;;0.98;0.60;;;5.70;99.90;;;;;;5059697;28;20181;-87
2023/10/10 14:54:37;;;;;;;4.88;0.98;;;5.70;99.90;;;;;;5062213;28;20177;-86
2023/10/10 14:57:06;;;;;;;1.70;0.80;;;5.70;99.90;;;;;;5064539;28;20192;-87
2023/10/10 14:59:35;;;;;;;2.08;1.10;;;5.70;99.90;;;;;;5058492;28;20196;-86
2023/10/10 15:02:06;;;;;;;2.65;1.27;;;5.70;99.90;;;;;;5052634;28;20604;-87
2023/10/10 15:04:35;;;;;;;4.90;1.52;;;5.60;99.90;;;;;;5060776;28;20208;-86
2023/10/10 15:07:04;;;;;;;3.13;1.80;;;5.60;99.90;;;;;;5059944;28;20185;-86
2023/10/10 15:09:36;;;;;;;2.17;1.13;;;5.60;99.90;;;;;;5065506;28;20199;-86
2023/10/10 15:12:03;;;;;;;5.85;1.45;;;5.60;99.90;;;;;;5058095;28;20185;-86
2023/10/10 15:14:34;;;;;;;2.25;1.48;;;5.60;99.90;;;;;;5062095;28;20188;-85
2023/10/10 15:17:04;;;;;;;4.32;1.52;;;5.60;99.90;;;;;;5058710;28;20193;-88
2023/10/10 15:19:32;;;;;;;4.50;1.70;;;5.60;99.90;;;;;;5064255;28;20181;-87
2023/10/10 15:22:00;;;;;;;3.38;1.70;;;5.50;99.90;;;;;;5044995;28;20189;-86
2023/10/10 15:24:30;;;;;;;2.92;1.52;;;5.50;99.90;;;;;;5058988;28;20190;-85
2023/10/10 15:26:59;;;;;;;2.90;1.45;;;5.50;99.90;;;;;;5068926;28;20189;-86
2023/10/10 15:29:27;;;;;;;2.97;1.60;;;5.40;99.90;;;;;;5055964;28;20578;-86
2023/10/10 15:31:56;;;;;;;5.47;2.13;;;5.40;99.90;;;;;;5064567;28;20880;-87
2023/10/10 15:34:24;;;;;;;7.28;2.22;;;5.30;99.90;;;;;;5042615;28;20204;-85
2023/10/10 15:36:51;;;;;;;3.03;1.60;;;5.30;99.90;;;;;;5059283;28;20729;-85
2023/10/10 15:39:19;;;;;;;3.08;1.13;;;5.40;99.90;;;;;;5061861;28;20189;-86
2023/10/10 15:41:47;;;;;;;2.08;0.98;;;5.20;99.90;;;;;;5063701;28;20232;-86
2023/10/10 15:44:15;;;;;;;2.20;1.20;;;5.20;99.90;;;;;;5066793;28;20238;-87
2023/10/10 15:46:43;;;;;;;1.55;0.93;;;5.00;99.90;;;;;;5061799;28;20780;-88
2023/10/10 15:49:13;;;;;;;4.63;1.13;;;5.00;99.90;;;;;;5038956;28;20555;-86
2023/10/10 15:52:03;;;;;;;2.40;0.80;;;5.00;99.90;;;;;;5067718;28;20194;-86
2023/10/10 15:54:33;;;;;;;1.38;0.80;;;5.00;99.90;;;;;;5060215;28;20185;-86
2023/10/10 15:57:05;;;;;;;2.55;0.93;;;5.00;99.90;;;;;;5056416;28;20193;-87
2023/10/10 15:59:33;;;;;;;1.77;1.10;;;5.00;99.90;;;;;;5066289;28;20597;-88
2023/10/10 16:02:01;;;;;;;1.58;0.82;;;4.90;99.90;;;;;;5066287;28;20205;-86
2023/10/10 16:04:29;;;;;;;1.83;0.80;;;4.80;99.90;;;;;;5058174;28;20191;-86
2023/10/10 16:06:58;;;;;;;1.60;0.93;;;4.80;99.90;;;;;;5070545;28;20184;-88
2023/10/10 16:09:29;;;;;;;1.40;0.80;;;4.70;99.90;;;;;;5067487;28;20192;-86
2023/10/10 16:11:58;;;;;;;2.30;0.98;;;4.70;99.90;;;;;;5067118;28;20176;-88
2023/10/10 16:14:36;;;;;;;5.85;1.30;;;4.60;99.90;;;;;;5067325;28;20659;-87
2023/10/10 16:17:06;;;;;;;4.93;1.20;;;4.60;99.90;;;;;;5057540;28;20655;-87
2023/10/10 16:19:35;;;;;;;2.40;1.05;;;4.60;99.90;;;;;;5070070;28;20642;-86